createdAt,value
2019-02-21T00:00:07.521Z,20.40
2019-02-21T00:02:38.233Z,21.23
2019-02-21T00:07:36.298Z,19.70
2019-02-21T00:10:05.413Z,20.77
2019-02-21T00:12:36.040Z,20.90
2019-02-21T00:17:34.344Z,21.67
2019-02-21T00:20:03.428Z,21.50
2019-02-21T00:22:33.735Z,21.53
2019-02-21T00:25:02.853Z,23.00
2019-02-21T00:27:33.482Z,21.83
2019-02-21T00:30:03.803Z,20.33
2019-02-21T00:32:33.922Z,21.27
2019-02-21T00:35:04.354Z,21.23
2019-02-21T00:40:03.767Z,20.57
2019-02-21T00:45:02.272Z,20.57
2019-02-21T00:47:51.434Z,21.57
2019-02-21T00:50:22.141Z,19.73
2019-02-21T00:52:52.787Z,19.63
2019-02-21T00:58:11.483Z,20.73
2019-02-21T01:00:46.593Z,18.53
2019-02-21T01:03:12.948Z,18.80
2019-02-21T01:05:42.625Z,18.87
2019-02-21T01:08:13.788Z,17.97
2019-02-21T01:10:44.700Z,17.13
2019-02-21T01:15:43.829Z,17.67
2019-02-21T01:18:12.501Z,16.37
2019-02-21T01:20:43.245Z,19.40
2019-02-21T01:23:12.243Z,15.87
2019-02-21T01:25:42.983Z,16.97
2019-02-21T01:28:11.968Z,16.67
2019-02-21T01:30:42.826Z,16.93
2019-02-21T01:33:11.810Z,16.30
2019-02-21T01:35:42.426Z,14.50
2019-02-21T01:38:12.937Z,17.53
2019-02-21T01:40:43.464Z,16.40
2019-02-21T01:43:14.013Z,16.60
2019-02-21T01:45:42.906Z,16.57
2019-02-21T01:48:13.314Z,16.90
2019-02-21T01:50:42.526Z,14.67
2019-02-21T01:53:13.369Z,15.93
2019-02-21T01:55:42.255Z,15.47
2019-02-21T01:58:12.475Z,15.80
2019-02-21T02:00:43.308Z,16.87
2019-02-21T02:03:13.729Z,16.73
2019-02-21T02:05:44.466Z,15.13
2019-02-21T02:10:44.546Z,15.23
2019-02-21T02:13:24.034Z,14.67
2019-02-21T02:15:45.355Z,15.70
2019-02-21T02:20:43.114Z,14.37
2019-02-21T02:23:11.827Z,15.80
2019-02-21T02:25:42.046Z,14.47
2019-02-21T02:30:39.701Z,14.80
2019-02-21T02:33:10.351Z,14.50
2019-02-21T02:35:40.778Z,14.83
2019-02-21T02:38:10.847Z,13.53
2019-02-21T02:40:41.509Z,14.33
2019-02-21T02:43:11.732Z,15.00
2019-02-21T02:48:09.836Z,15.23
2019-02-21T02:50:38.608Z,14.53
2019-02-21T02:53:09.251Z,14.63
2019-02-21T02:58:07.855Z,12.57
2019-02-21T03:00:37.124Z,13.73
2019-02-21T03:03:07.884Z,13.60
2019-02-21T03:05:36.881Z,14.57
2019-02-21T03:08:07.811Z,13.23
2019-02-21T03:10:37.933Z,14.67
2019-02-21T03:13:08.342Z,13.97
2019-02-21T03:15:38.564Z,14.50
2019-02-21T03:20:37.571Z,13.73
2019-02-21T03:23:06.465Z,13.90
2019-02-21T03:25:37.113Z,12.57
2019-02-21T03:28:06.323Z,13.27
2019-02-21T03:30:36.845Z,13.73
2019-02-21T03:33:05.819Z,12.70
2019-02-21T03:35:36.465Z,13.97
2019-02-21T03:38:06.780Z,19.53
2019-02-21T03:40:36.819Z,19.17
2019-02-21T03:43:07.336Z,25.27
2019-02-21T03:45:37.758Z,23.80
2019-02-21T03:48:08.262Z,26.73
2019-02-21T03:50:37.374Z,44.07
2019-02-21T03:53:07.784Z,47.03
2019-02-21T03:55:36.775Z,31.60
2019-02-21T03:58:09.380Z,19.60
2019-02-21T04:00:39.166Z,22.43
2019-02-21T04:03:09.503Z,17.47
2019-02-21T04:05:39.707Z,17.63
2019-02-21T04:10:38.517Z,16.00
2019-02-21T04:13:07.523Z,18.13
2019-02-21T04:15:37.946Z,16.33
2019-02-21T04:18:07.022Z,15.60
2019-02-21T04:20:37.368Z,13.83
2019-02-21T04:23:06.356Z,15.07
2019-02-21T04:25:37.299Z,15.87
2019-02-21T04:28:06.392Z,15.47
2019-02-21T04:30:36.709Z,13.97
2019-02-21T04:33:07.125Z,14.13
2019-02-21T04:35:37.348Z,12.93
2019-02-21T04:38:07.673Z,14.03
2019-02-21T04:40:37.796Z,13.83
2019-02-21T04:43:07.720Z,14.00
2019-02-21T04:45:36.742Z,14.47
2019-02-21T04:48:07.431Z,15.93
2019-02-21T04:50:36.116Z,16.93
2019-02-21T04:53:06.644Z,18.23
2019-02-21T04:55:35.539Z,18.97
2019-02-21T04:58:06.686Z,15.67
2019-02-21T05:00:35.668Z,15.43
2019-02-21T05:03:05.893Z,15.50
2019-02-21T05:05:37.557Z,15.77
2019-02-21T05:10:37.010Z,19.23
2019-02-21T05:13:05.956Z,16.53
2019-02-21T05:15:36.278Z,16.57
2019-02-21T05:20:34.778Z,17.07
2019-02-21T05:23:03.464Z,17.50
2019-02-21T05:25:33.917Z,16.73
2019-02-21T05:28:21.635Z,16.73
2019-02-21T05:30:52.276Z,15.93
2019-02-21T05:33:41.445Z,15.87
2019-02-21T05:36:30.413Z,16.30
2019-02-21T05:39:17.800Z,16.60
2019-02-21T05:41:54.915Z,16.77
2019-02-21T05:44:34.846Z,16.23
2019-02-21T05:47:23.820Z,16.83
2019-02-21T05:50:08.877Z,17.53
2019-02-21T05:52:57.846Z,17.63
2019-02-21T05:55:41.464Z,17.13
2019-02-21T05:58:24.802Z,17.23
2019-02-21T06:01:12.427Z,17.37
2019-02-21T06:03:49.088Z,17.13
2019-02-21T06:06:36.025Z,17.33
2019-02-21T06:09:05.823Z,16.47
2019-02-21T06:14:34.209Z,16.13
2019-02-21T06:17:11.406Z,15.80
2019-02-21T06:20:00.985Z,15.43
2019-02-21T06:22:50.447Z,16.30
2019-02-21T06:28:10.767Z,16.37
2019-02-21T06:30:49.906Z,15.43
2019-02-21T06:35:50.545Z,16.40
2019-02-21T06:38:19.321Z,18.50
2019-02-21T06:40:51.513Z,19.13
2019-02-21T06:43:21.048Z,17.70
2019-02-21T06:45:51.327Z,18.43
2019-02-21T06:48:21.662Z,22.43
2019-02-21T06:50:52.095Z,20.93
2019-02-21T06:53:22.590Z,24.83
2019-02-21T06:55:51.480Z,22.43
2019-02-21T06:58:24.603Z,22.30
2019-02-21T07:03:28.920Z,21.63
2019-02-21T07:05:58.528Z,19.30
2019-02-21T07:08:28.917Z,19.17
2019-02-21T07:11:06.280Z,19.07
2019-02-21T07:16:01.551Z,18.93
2019-02-21T07:18:30.560Z,18.33
2019-02-21T07:23:48.500Z,20.23
2019-02-21T07:26:20.666Z,20.90
2019-02-21T07:28:50.783Z,22.90
2019-02-21T07:31:28.745Z,23.80
2019-02-21T07:33:54.407Z,22.80
2019-02-21T07:36:25.356Z,22.47
2019-02-21T07:39:08.522Z,22.37
2019-02-21T07:41:30.287Z,22.73
2019-02-21T07:44:11.370Z,22.17
2019-02-21T07:46:32.599Z,21.50
2019-02-21T07:49:02.693Z,24.43
2019-02-21T07:51:35.845Z,21.00
2019-02-21T07:54:05.292Z,21.70
2019-02-21T07:56:42.120Z,22.40
2019-02-21T07:59:07.264Z,22.03
2019-02-21T08:01:37.504Z,19.50
2019-02-21T08:04:08.847Z,18.83
2019-02-21T08:06:38.967Z,19.47
2019-02-21T08:09:09.472Z,19.47
2019-02-21T08:11:39.696Z,20.07
2019-02-21T08:14:09.835Z,21.83
2019-02-21T08:16:39.740Z,19.67
2019-02-21T08:19:10.276Z,18.87
2019-02-21T08:21:43.337Z,21.87
2019-02-21T08:24:12.374Z,22.97
2019-02-21T08:26:42.773Z,24.00
2019-02-21T08:29:13.192Z,22.07
2019-02-21T08:31:43.316Z,19.10
2019-02-21T08:34:20.596Z,17.73
2019-02-21T08:36:50.830Z,19.07
2019-02-21T08:39:21.119Z,18.67
2019-02-21T08:41:51.379Z,18.90
2019-02-21T08:44:21.599Z,21.20
2019-02-21T08:46:53.493Z,18.30
2019-02-21T08:49:23.890Z,19.20
2019-02-21T08:51:55.100Z,19.23
2019-02-21T08:54:25.866Z,19.70
2019-02-21T08:56:55.884Z,18.00
2019-02-21T08:59:28.464Z,20.30
2019-02-21T09:01:58.887Z,19.13
2019-02-21T09:04:29.838Z,19.77
2019-02-21T09:07:01.989Z,19.80
2019-02-21T09:09:33.749Z,20.83
2019-02-21T09:12:06.329Z,20.70
2019-02-21T09:14:37.893Z,20.50
2019-02-21T09:17:10.446Z,22.17
2019-02-21T09:19:40.985Z,21.93
2019-02-21T09:22:11.291Z,22.73
2019-02-21T09:24:42.631Z,22.17
2019-02-21T09:27:12.960Z,21.90
2019-02-21T09:29:43.493Z,21.20
2019-02-21T09:32:13.706Z,21.33
2019-02-21T09:34:44.037Z,20.90
2019-02-21T09:37:14.144Z,21.53
2019-02-21T09:39:44.066Z,21.40
2019-02-21T09:42:13.686Z,22.60
2019-02-21T09:44:43.993Z,23.27
2019-02-21T09:47:14.325Z,24.73
2019-02-21T09:49:44.744Z,25.30
2019-02-21T09:52:15.478Z,26.57
2019-02-21T09:54:47.528Z,23.50
2019-02-21T09:57:17.451Z,24.97
2019-02-21T09:59:47.162Z,27.13
2019-02-21T10:02:17.082Z,25.17
2019-02-21T10:04:46.793Z,25.67
2019-02-21T10:07:16.702Z,24.13
2019-02-21T10:09:47.334Z,25.10
2019-02-21T10:12:17.864Z,26.17
2019-02-21T10:14:48.388Z,26.80
2019-02-21T10:17:18.913Z,29.40
2019-02-21T10:19:49.863Z,28.63
2019-02-21T10:22:20.388Z,28.57
2019-02-21T10:24:50.491Z,28.87
2019-02-21T10:27:20.422Z,25.87
2019-02-21T10:29:50.542Z,30.00
2019-02-21T10:32:20.653Z,27.27
2019-02-21T10:34:53.012Z,27.00
2019-02-21T10:37:22.332Z,29.53
2019-02-21T10:39:52.865Z,28.73
2019-02-21T10:42:22.673Z,27.30
2019-02-21T10:44:52.482Z,28.00
2019-02-21T10:47:22.194Z,28.30
2019-02-21T10:49:52.827Z,27.13
2019-02-21T10:52:22.832Z,30.57
2019-02-21T10:54:52.650Z,30.33
2019-02-21T10:57:22.364Z,30.57
2019-02-21T10:59:52.181Z,31.87
2019-02-21T11:02:22.391Z,31.50
2019-02-21T11:04:55.040Z,32.17
2019-02-21T11:07:24.576Z,34.57
2019-02-21T11:09:55.003Z,35.00
2019-02-21T11:12:24.913Z,31.90
2019-02-21T11:14:55.270Z,37.87
2019-02-21T11:17:26.039Z,31.90
2019-02-21T11:19:55.992Z,27.83
2019-02-21T11:22:27.646Z,28.00
2019-02-21T11:24:57.662Z,27.43
2019-02-21T11:27:27.681Z,28.37
2019-02-21T11:29:57.790Z,27.67
2019-02-21T11:32:34.881Z,26.43
2019-02-21T11:35:06.607Z,25.67
2019-02-21T11:37:43.239Z,24.73
2019-02-21T11:40:10.453Z,25.33
2019-02-21T11:42:40.989Z,25.27
2019-02-21T11:45:12.333Z,23.23
2019-02-21T11:47:42.761Z,25.40
2019-02-21T11:50:13.493Z,26.77
2019-02-21T11:52:44.323Z,23.37
2019-02-21T11:55:16.492Z,23.30
2019-02-21T11:57:47.090Z,24.03
2019-02-21T12:00:19.190Z,25.30
2019-02-21T12:02:50.123Z,24.17
2019-02-21T12:05:30.448Z,25.30
2019-02-21T12:07:53.023Z,24.13
2019-02-21T12:10:23.765Z,24.90
2019-02-21T12:12:53.799Z,24.97
2019-02-21T12:15:26.159Z,24.00
2019-02-21T12:17:56.382Z,25.53
2019-02-21T12:20:26.382Z,28.67
2019-02-21T12:22:56.853Z,26.37
2019-02-21T12:25:26.827Z,27.10
2019-02-21T12:27:56.953Z,25.53
2019-02-21T12:30:26.864Z,26.93
2019-02-21T12:32:57.592Z,26.70
2019-02-21T12:35:29.863Z,29.87
2019-02-21T12:37:59.370Z,27.97
2019-02-21T12:40:29.389Z,26.00
2019-02-21T12:42:59.514Z,25.63
2019-02-21T12:45:30.204Z,30.70
2019-02-21T12:48:00.264Z,27.90
2019-02-21T12:50:30.276Z,28.63
2019-02-21T12:53:00.387Z,28.07
2019-02-21T12:55:31.797Z,28.87
2019-02-21T12:58:02.107Z,28.73
2019-02-21T13:00:32.283Z,30.53
2019-02-21T13:03:02.303Z,31.93
2019-02-21T13:05:40.428Z,29.00
2019-02-21T13:08:03.766Z,34.67
2019-02-21T13:10:34.970Z,32.20
2019-02-21T13:13:05.741Z,31.57
2019-02-21T13:15:35.553Z,33.23
2019-02-21T13:18:15.269Z,38.50
2019-02-21T13:20:38.079Z,37.13
2019-02-21T13:23:08.265Z,37.40
2019-02-21T13:25:38.802Z,37.73
2019-02-21T13:28:09.223Z,33.13
2019-02-21T13:30:39.653Z,34.23
2019-02-21T13:33:09.971Z,30.93
2019-02-21T13:35:39.913Z,33.73
2019-02-21T13:38:09.696Z,36.57
2019-02-21T13:40:39.859Z,35.60
2019-02-21T13:43:09.763Z,34.03
2019-02-21T13:45:39.650Z,37.17
2019-02-21T13:48:09.867Z,35.67
2019-02-21T13:50:40.187Z,23.57
2019-02-21T13:53:09.902Z,20.10
2019-02-21T13:55:40.122Z,21.43
2019-02-21T13:58:10.344Z,17.57
2019-02-21T14:00:40.464Z,18.37
2019-02-21T14:03:10.912Z,18.13
2019-02-21T14:05:41.725Z,21.23
2019-02-21T14:08:11.856Z,20.27
2019-02-21T14:10:41.875Z,19.33
2019-02-21T14:13:12.088Z,18.37
2019-02-21T14:15:42.814Z,21.07
2019-02-21T14:18:14.592Z,20.83
2019-02-21T14:20:45.860Z,20.07
2019-02-21T14:23:19.218Z,21.63
2019-02-21T14:25:49.740Z,21.73
2019-02-21T14:28:22.264Z,22.40
2019-02-21T14:30:53.461Z,24.30
2019-02-21T14:33:23.583Z,22.53
2019-02-21T14:35:54.936Z,22.43
2019-02-21T14:38:37.718Z,24.03
2019-02-21T14:41:07.686Z,24.40
2019-02-21T14:43:39.223Z,25.60
2019-02-21T14:46:10.570Z,22.77
2019-02-21T14:48:41.841Z,21.00
2019-02-21T14:51:12.532Z,27.53
2019-02-21T14:53:45.523Z,37.77
2019-02-21T14:56:16.474Z,31.67
2019-02-21T14:58:46.779Z,30.53
2019-02-21T15:01:17.126Z,31.97
2019-02-21T15:03:47.239Z,30.13
2019-02-21T15:06:26.729Z,33.13
2019-02-21T15:08:49.834Z,30.67
2019-02-21T15:11:21.993Z,31.40
2019-02-21T15:13:52.123Z,32.60
2019-02-21T15:16:21.916Z,34.57
2019-02-21T15:18:55.114Z,36.23
2019-02-21T15:21:24.587Z,36.33
2019-02-21T15:23:55.149Z,35.20
2019-02-21T15:26:27.719Z,34.83
2019-02-21T15:29:00.092Z,31.13
2019-02-21T15:31:31.644Z,31.43
2019-02-21T15:34:02.284Z,31.50
2019-02-21T15:36:38.241Z,31.20
2019-02-21T15:39:06.501Z,33.00
2019-02-21T15:41:37.095Z,32.60
2019-02-21T15:44:07.822Z,33.67
2019-02-21T15:46:38.113Z,36.07
2019-02-21T15:49:08.332Z,36.53
2019-02-21T15:51:39.463Z,34.07
2019-02-21T15:54:12.952Z,35.17
2019-02-21T15:56:52.497Z,34.63
2019-02-21T15:59:23.121Z,37.67
2019-02-21T16:01:53.439Z,36.70
2019-02-21T16:04:23.990Z,42.57
2019-02-21T16:06:57.907Z,38.87
2019-02-21T16:09:29.743Z,45.03
2019-02-21T16:12:00.750Z,39.60
2019-02-21T16:14:31.102Z,39.70
2019-02-21T16:17:04.513Z,41.07
2019-02-21T16:19:34.843Z,39.03
2019-02-21T16:25:20.636Z,42.83
2019-02-21T16:30:51.504Z,40.40
2019-02-21T16:50:29.171Z,36.60
2019-02-21T16:52:51.433Z,33.23
2019-02-21T16:55:24.854Z,30.87
2019-02-21T17:05:18.458Z,35.87
2019-02-21T17:10:18.792Z,32.13
2019-02-21T17:12:49.731Z,32.67
2019-02-21T17:15:20.466Z,31.27
2019-02-21T17:20:18.861Z,28.77
2019-02-21T17:25:18.906Z,28.33
2019-02-21T17:30:19.314Z,36.83
2019-02-21T17:35:18.789Z,29.77
2019-02-21T17:37:48.986Z,30.07
2019-02-21T17:40:20.229Z,27.47
2019-02-21T17:42:49.627Z,26.73
2019-02-21T17:50:19.874Z,24.43
2019-02-21T17:52:49.498Z,24.50
2019-02-21T17:55:20.513Z,26.27
2019-02-21T17:57:49.426Z,25.43
2019-02-21T18:10:19.718Z,24.63
2019-02-21T18:12:48.701Z,23.20
2019-02-21T18:15:19.748Z,23.97
2019-02-21T18:20:19.554Z,22.23
2019-02-21T18:30:19.833Z,23.53
2019-02-21T18:32:52.326Z,24.90
2019-02-21T18:35:21.827Z,24.37
2019-02-21T18:45:20.633Z,24.67
2019-02-21T18:47:50.453Z,26.53
2019-02-21T19:23:00.722Z,34.47
2019-02-21T19:55:45.482Z,30.93
2019-02-21T20:20:27.139Z,33.20
2019-02-21T20:29:00.554Z,36.43
2019-02-21T21:04:40.029Z,39.67
2019-02-21T21:25:12.595Z,45.30
2019-02-21T21:47:25.014Z,46.17
2019-02-21T21:49:34.754Z,50.37
2019-02-21T21:52:06.018Z,51.47
2019-02-21T21:54:38.006Z,52.00
2019-02-21T21:57:08.806Z,48.20
2019-02-21T21:59:38.825Z,54.07
2019-02-21T22:02:12.181Z,58.27
2019-02-21T22:04:42.835Z,52.60
2019-02-21T22:07:13.475Z,51.03
2019-02-21T22:09:47.007Z,49.73
2019-02-21T22:12:16.921Z,50.27
2019-02-21T22:48:03.828Z,54.47
2019-02-21T22:50:36.483Z,44.57
2019-02-21T22:53:07.742Z,48.67
2019-02-21T22:55:38.664Z,50.83
2019-02-21T22:58:09.507Z,49.80
2019-02-21T23:09:08.877Z,42.80
2019-02-21T23:11:39.590Z,42.60
2019-02-21T23:19:45.806Z,37.83
2019-02-21T23:22:20.723Z,37.63
2019-02-21T23:24:53.825Z,38.77
2019-02-21T23:27:29.565Z,34.50
2019-02-21T23:29:59.983Z,38.53
2019-02-21T23:32:30.510Z,35.67
2019-02-21T23:35:01.866Z,38.80
2019-02-21T23:37:32.489Z,36.63
2019-02-21T23:40:03.942Z,32.57
2019-02-21T23:42:35.417Z,40.40
2019-02-21T23:45:06.551Z,36.50
2019-02-21T23:47:37.479Z,37.93
2019-02-21T23:50:08.429Z,43.30
2019-02-21T23:52:39.677Z,36.07
2019-02-21T23:55:10.302Z,36.77
2019-02-21T23:57:41.338Z,36.63
